Time;durP1;ratioP1;P1;durP2;ratioP2;P2;SDS_P1;SDS_P2;PMS_P1;PMS_P2;Temp;Humidity;BMP_temperature;BMP_pressure;BME280_temperature;BME280_humidity;BME280_pressure;Samples;Min_cycle;Max_cycle;Signal;HPM_P1;HPM_P2
2022/05/31 00:00:38;;;;;;;4.30;1.50;;;;;;;10.98;59.35;97705.66;10053474;29;20093;-77
2022/05/31 00:06:04;;;;;;;2.97;1.30;;;;;;;10.92;59.51;97705.28;10041524;29;20096;-77
2022/05/31 00:11:25;;;;;;;3.25;1.45;;;;;;;10.81;60.05;97708.75;10066173;29;20136;-76
2022/05/31 00:16:47;;;;;;;3.33;1.80;;;;;;;10.69;59.97;97703.06;10053057;29;20152;-76
2022/05/31 00:22:22;;;;;;;2.95;1.48;;;;;;;10.65;60.00;97693.72;10052267;29;20053;-76
2022/05/31 00:27:43;;;;;;;3.28;1.40;;;;;;;10.62;60.68;97700.50;10052593;29;20085;-77
2022/05/31 00:33:05;;;;;;;2.78;1.83;;;;;;;10.60;60.72;97699.00;10052181;29;20065;-76
2022/05/31 00:38:25;;;;;;;2.83;1.63;;;;;;;10.49;60.61;97691.28;10053489;29;20148;-76
2022/05/31 00:43:46;;;;;;;2.95;1.35;;;;;;;10.40;60.96;97686.50;10046682;29;20535;-76
2022/05/31 00:49:08;;;;;;;3.55;1.33;;;;;;;10.29;61.26;97689.94;10046678;29;20118;-76
2022/05/31 00:54:31;;;;;;;2.20;1.50;;;;;;;10.22;61.31;97682.47;10058869;29;20059;-77
2022/05/31 00:59:54;;;;;;;3.35;1.88;;;;;;;10.11;61.64;97694.25;10045430;29;20050;-76
2022/05/31 01:05:16;;;;;;;2.28;1.20;;;;;;;10.10;61.37;97695.56;10045244;29;20137;-76
2022/05/31 01:10:37;;;;;;;2.42;1.50;;;;;;;10.07;61.64;97691.91;10045060;29;20058;-76
2022/05/31 01:16:17;;;;;;;3.22;1.52;;;;;;;10.10;61.89;97692.78;10059677;29;20061;-77
2022/05/31 01:21:57;;;;;;;4.47;1.70;;;;;;;10.04;61.84;97695.91;10048874;29;20128;-77
2022/05/31 01:27:40;;;;;;;3.15;1.58;;;;;;;10.02;61.88;97702.06;10058043;29;20128;-76
2022/05/31 01:33:07;;;;;;;3.60;1.63;;;;;;;10.01;61.94;97708.97;10056959;29;20064;-76
2022/05/31 01:38:31;;;;;;;4.25;1.60;;;;;;;9.99;62.07;97706.03;10044754;29;20049;-76
2022/05/31 01:43:53;;;;;;;;;;;;;;;9.98;62.90;97701.06;10031886;29;20113;-77
2022/05/31 01:49:14;;;;;;;3.35;1.63;;;;;;;9.79;62.91;97704.63;10056047;29;19925;-76
2022/05/31 01:54:36;;;;;;;3.03;2.00;;;;;;;9.64;62.87;97700.09;10043811;29;20061;-76
2022/05/31 02:00:04;;;;;;;2.50;1.75;;;;;;;9.56;63.19;97699.56;10055498;29;20049;-76
2022/05/31 02:05:34;;;;;;;3.42;2.30;;;;;;;9.53;63.25;97702.78;10033623;29;20057;-76
2022/05/31 02:10:56;;;;;;;3.78;2.20;;;;;;;9.51;63.36;97697.06;10042713;29;20069;-77
2022/05/31 02:16:20;;;;;;;3.80;2.15;;;;;;;9.54;63.43;97685.47;10055726;29;20050;-76
2022/05/31 02:22:07;;;;;;;3.00;2.20;;;;;;;9.58;63.79;97696.19;10051690;29;20054;-76
2022/05/31 02:27:29;;;;;;;3.92;2.60;;;;;;;9.43;64.16;97691.66;10042335;29;20123;-76
2022/05/31 02:32:51;;;;;;;3.17;2.50;;;;;;;9.32;63.96;97697.81;10043069;29;20277;-77
2022/05/31 02:38:12;;;;;;;4.13;2.60;;;;;;;9.27;64.34;97698.88;10045960;29;20055;-77
2022/05/31 02:43:33;;;;;;;4.38;2.75;;;;;;;9.24;64.41;97697.97;10066658;29;20110;-76
2022/05/31 02:48:55;;;;;;;4.90;2.42;;;;;;;9.25;64.38;97707.78;10053181;29;20053;-77
2022/05/31 02:54:16;;;;;;;3.83;2.58;;;;;;;9.27;64.41;97699.59;10046243;29;20056;-76
2022/05/31 03:00:08;;;;;;;4.15;3.00;;;;;;;9.24;65.13;97697.25;10037885;29;20132;-77
2022/05/31 03:05:54;;;;;;;3.65;2.60;;;;;;;9.24;65.03;97695.19;10061039;29;20057;-77
2022/05/31 03:11:25;;;;;;;4.10;2.53;;;;;;;9.21;65.30;97693.59;10060019;29;20497;-76
2022/05/31 03:16:50;;;;;;;4.15;2.42;;;;;;;9.29;65.11;97705.31;10067906;29;20053;-77
2022/05/31 03:22:21;;;;;;;4.07;2.25;;;;;;;9.40;64.70;97693.56;10062131;29;20064;-79
2022/05/31 03:27:42;;;;;;;4.75;2.72;;;;;;;9.41;64.96;97686.66;10058947;29;20068;-78
2022/05/31 03:33:04;;;;;;;3.40;2.63;;;;;;;9.49;64.83;97689.31;10047335;29;20085;-78
2022/05/31 03:38:24;;;;;;;3.92;2.58;;;;;;;9.56;64.89;97693.25;10058733;29;20049;-78
2022/05/31 03:43:45;;;;;;;3.80;2.58;;;;;;;9.60;64.80;97687.97;10053442;29;20068;-79
2022/05/31 03:49:14;;;;;;;5.60;2.88;;;;;;;9.62;64.88;97691.63;10067300;29;20049;-76
2022/05/31 03:54:43;;;;;;;4.57;2.67;;;;;;;9.73;65.32;97690.25;10058942;29;20065;-76
2022/05/31 04:00:05;;;;;;;3.60;2.85;;;;;;;9.72;65.02;97702.72;10051461;29;20049;-78
2022/05/31 04:05:53;;;;;;;3.22;2.78;;;;;;;9.84;65.17;97700.78;10082911;29;20059;-78
2022/05/31 04:11:17;;;;;;;3.75;3.08;;;;;;;9.96;65.09;97701.66;10105050;29;20097;-79
2022/05/31 04:17:05;;;;;;;5.60;3.13;;;;;;;10.14;64.75;97704.97;10087299;29;20061;-78
2022/05/31 04:22:27;;;;;;;4.70;2.90;;;;;;;10.24;64.72;97707.75;10068233;29;20073;-78
2022/05/31 04:28:02;;;;;;;7.05;3.40;;;;;;;10.49;64.64;97705.25;10094323;29;20057;-78
2022/05/31 04:33:42;;;;;;;3.42;3.10;;;;;;;10.67;64.46;97724.53;10083550;29;20067;-78
2022/05/31 04:39:04;;;;;;;4.30;3.30;;;;;;;10.79;64.10;97725.34;10093593;29;20057;-78
2022/05/31 04:44:26;;;;;;;5.15;3.13;;;;;;;10.87;63.70;97735.00;10066942;29;20056;-78
2022/05/31 04:49:48;;;;;;;4.28;3.22;;;;;;;11.07;63.34;97732.78;10078742;29;20057;-77
2022/05/31 04:55:09;;;;;;;6.13;2.90;;;;;;;11.28;63.38;97725.72;10093799;29;20049;-77
2022/05/31 05:00:47;;;;;;;5.18;3.08;;;;;;;11.32;62.85;97718.34;10085153;29;20055;-78
2022/05/31 05:06:41;;;;;;;5.30;3.33;;;;;;;11.46;62.75;97721.28;10091580;29;20057;-78
2022/05/31 05:12:03;;;;;;;4.40;3.25;;;;;;;11.76;62.49;97733.66;10099050;29;20185;-77
2022/05/31 05:17:29;;;;;;;6.13;3.50;;;;;;;12.07;61.89;97735.59;10063794;29;20477;-77
2022/05/31 05:22:50;;;;;;;3.35;3.00;;;;;;;12.48;60.95;97738.78;10079429;29;20080;-77
2022/05/31 05:34:12;;;;;;;5.97;3.60;;;;;;;13.32;59.89;97724.75;10104071;29;20191;-77
2022/05/31 05:39:52;;;;;;;5.93;3.20;;;;;;;13.83;59.07;97725.47;10080672;29;20057;-77
2022/05/31 05:45:31;;;;;;;5.32;3.08;;;;;;;14.46;54.35;97733.72;10091376;29;20476;-77
2022/05/31 05:50:56;;;;;;;5.88;3.20;;;;;;;15.10;56.02;97733.50;10086691;29;20064;-77
2022/05/31 05:57:18;;;;;;;4.40;3.15;;;;;;;16.42;53.92;97727.72;10059296;29;20050;-77
2022/05/31 06:03:06;;;;;;;4.53;3.35;;;;;;;17.67;51.30;97733.69;10058189;29;20066;-78
2022/05/31 06:10:08;;;;;;;4.45;3.10;;;;;;;20.69;45.96;97727.59;9954233;29;20501;-78
2022/05/31 06:15:33;;;;;;;7.95;3.15;;;;;;;22.77;42.54;97733.19;9923394;29;20080;-77
2022/05/31 06:20:56;;;;;;;5.07;3.08;;;;;;;24.06;42.00;97728.28;9933120;29;20070;-78
2022/05/31 06:26:18;;;;;;;3.72;2.55;;;;;;;24.79;35.10;97728.50;9974003;29;20058;-78
2022/05/31 06:31:49;;;;;;;2.90;2.53;;;;;;;25.38;34.64;97731.97;10013389;29;20062;-77
2022/05/31 06:37:20;;;;;;;7.00;2.78;;;;;;;26.40;33.07;97738.44;10025723;29;20054;-77
2022/05/31 06:42:41;;;;;;;5.18;2.33;;;;;;;27.71;30.70;97737.38;10023187;29;20061;-77
2022/05/31 06:48:21;;;;;;;5.60;2.53;;;;;;;28.35;28.20;97732.25;10050948;29;20041;-78
2022/05/31 07:00:16;;;;;;;5.35;2.00;;;;;;;30.91;24.21;97717.97;10038855;29;20060;-79
2022/05/31 07:05:38;;;;;;;3.65;1.83;;;;;;;33.41;20.91;97718.44;10021610;29;20461;-80
2022/05/31 07:11:07;;;;;;;6.13;1.63;;;;;;;35.03;18.57;97706.84;9959597;29;20114;-80
2022/05/31 07:16:47;;;;;;;4.07;1.67;;;;;;;37.07;16.30;97712.16;9962143;29;20058;-80
2022/05/31 07:22:31;;;;;;;3.80;1.85;;;;;;;40.24;13.69;97703.59;9972343;29;20041;-81
2022/05/31 07:28:13;;;;;;;4.10;1.33;;;;;;;41.93;12.24;97705.94;10015668;29;20064;-81
2022/05/31 07:33:41;;;;;;;5.97;1.65;;;;;;;44.47;9.59;97691.72;10039411;29;20504;-81
2022/05/31 07:39:03;;;;;;;5.35;1.42;;;;;;;46.43;8.65;97677.25;10038595;29;20049;-80
2022/05/31 07:44:26;;;;;;;4.57;1.23;;;;;;;46.90;7.53;97677.16;10037694;29;20440;-80
2022/05/31 07:49:47;;;;;;;4.35;1.20;;;;;;;47.04;7.63;97673.06;10009353;29;20057;-80
2022/05/31 07:55:30;;;;;;;4.30;1.45;;;;;;;47.86;6.33;97672.91;10058749;29;20065;-80
2022/05/31 08:01:16;;;;;;;2.78;0.90;;;;;;;47.91;6.32;97672.59;10066632;29;20057;-80
2022/05/31 08:06:41;;;;;;;2.83;1.08;;;;;;;48.65;6.22;97677.22;10070838;29;20063;-80
2022/05/31 08:12:10;;;;;;;4.22;0.90;;;;;;;48.49;5.83;97660.19;10070801;29;20068;-78
2022/05/31 08:17:31;;;;;;;3.17;0.85;;;;;;;49.00;5.65;97662.97;10057715;29;20113;-81
2022/05/31 08:22:53;;;;;;;3.45;0.88;;;;;;;49.41;5.09;97659.28;10057725;29;20522;-80
2022/05/31 08:28:17;;;;;;;3.75;0.98;;;;;;;49.20;5.37;97653.81;10057229;29;20057;-80
2022/05/31 08:33:41;;;;;;;3.13;0.65;;;;;;;48.87;5.27;97659.03;10070079;29;20533;-80
2022/05/31 08:39:15;;;;;;;;;;;;;;;50.70;4.54;97638.97;10070407;29;20547;-81
2022/05/31 08:44:51;;;;;;;4.90;0.82;;;;;;;50.65;4.52;97640.94;10083699;29;19923;-86
2022/05/31 08:56:56;;;;;;;2.65;0.60;;;;;;;48.63;4.72;97638.91;10076009;29;20479;-86
2022/05/31 09:02:57;;;;;;;2.20;0.50;;;;;;;49.90;4.30;97628.06;10077766;29;20053;-86
2022/05/31 09:08:24;;;;;;;3.90;0.50;;;;;;;51.70;4.00;97614.16;10076861;29;20519;-87
2022/05/31 09:14:07;;;;;;;2.25;0.75;;;;;;;52.74;3.11;97612.94;10091168;29;20116;-88
2022/05/31 09:19:34;;;;;;;2.60;0.98;;;;;;;50.53;3.32;97616.09;10102284;29;20053;-79
2022/05/31 09:24:56;;;;;;;2.30;0.80;;;;;;;50.81;3.75;97611.94;10076580;29;20261;-78
2022/05/31 09:30:46;;;;;;;2.53;1.10;;;;;;;51.31;3.74;97605.50;10083274;29;20049;-79
2022/05/31 09:36:38;;;;;;;1.35;0.80;;;;;;;51.60;3.11;97601.00;10075890;29;20060;-78
2022/05/31 09:42:08;;;;;;;1.35;0.60;;;;;;;47.55;4.66;97589.06;10088914;29;20116;-79
2022/05/31 09:47:30;;;;;;;2.17;0.57;;;;;;;46.27;5.33;97581.88;10075177;29;20053;-78
2022/05/31 09:52:56;;;;;;;1.88;0.30;;;;;;;39.30;8.95;97587.91;10088129;29;20088;-80
2022/05/31 09:59:01;;;;;;;2.20;0.30;;;;;;;34.65;10.84;97579.72;10068322;29;20064;-80
2022/05/31 10:04:42;;;;;;;1.05;0.50;;;;;;;40.39;10.56;97568.34;10092777;29;20492;-79
2022/05/31 10:10:11;;;;;;;1.10;0.30;;;;;;;41.44;8.13;97579.22;10074130;29;20067;-80
2022/05/31 10:16:26;;;;;;;;;;;;;;;35.27;11.38;97558.84;10078782;29;20057;-81
2022/05/31 10:21:48;;;;;;;0.77;0.28;;;;;;;37.00;11.76;97557.53;10085963;29;20282;-81
2022/05/31 10:27:22;;;;;;;1.60;0.32;;;;;;;33.89;11.87;97557.34;10088294;29;20484;-80
2022/05/31 10:32:50;;;;;;;1.67;0.30;;;;;;;32.67;12.97;97549.56;10061215;29;20052;-79
2022/05/31 10:38:17;;;;;;;0.68;0.20;;;;;;;31.06;14.35;97532.56;10061092;29;20052;-79
2022/05/31 10:43:40;;;;;;;0.55;0.28;;;;;;;38.84;11.68;97532.56;10081126;29;20097;-80
2022/05/31 10:49:04;;;;;;;1.15;0.25;;;;;;;34.66;10.98;97536.94;10063299;29;20050;-80
2022/05/31 10:54:33;;;;;;;3.70;0.50;;;;;;;35.97;11.62;97528.09;10058610;29;20053;-77
2022/05/31 11:00:11;;;;;;;1.35;0.30;;;;;;;37.76;10.04;97520.13;10067480;29;20069;-80
2022/05/31 11:06:07;;;;;;;1.05;0.25;;;;;;;35.20;10.17;97519.22;10064843;29;20058;-81
2022/05/31 11:11:56;;;;;;;0.55;0.25;;;;;;;32.25;11.82;97522.34;10063228;29;20177;-79
2022/05/31 11:17:47;;;;;;;2.38;0.25;;;;;;;31.22;12.85;97499.19;10072131;29;20057;-78
2022/05/31 11:23:35;;;;;;;0.90;0.20;;;;;;;30.53;13.63;97491.66;10046966;29;20556;-76
2022/05/31 11:29:08;;;;;;;2.38;0.30;;;;;;;29.08;14.59;97491.28;10014583;29;20061;-76
2022/05/31 11:34:51;;;;;;;1.60;0.30;;;;;;;28.01;16.17;97483.47;10061062;29;20484;-76
2022/05/31 11:40:28;;;;;;;0.95;0.30;;;;;;;27.88;16.59;97497.16;10051352;29;20045;-76
2022/05/31 11:46:16;;;;;;;0.80;0.30;;;;;;;26.87;18.57;97506.69;10071547;29;20054;-75
2022/05/31 11:51:59;;;;;;;1.52;0.50;;;;;;;27.75;17.14;97481.44;10074857;29;20053;-75
2022/05/31 11:57:47;;;;;;;2.38;0.40;;;;;;;27.96;17.38;97485.63;10062265;29;20049;-74
2022/05/31 12:03:11;;;;;;;2.95;0.40;;;;;;;27.77;17.61;97481.44;10049045;29;20056;-76
2022/05/31 12:08:46;;;;;;;1.35;0.40;;;;;;;27.56;17.36;97472.91;10072072;29;20056;-74
2022/05/31 12:14:09;;;;;;;1.75;0.50;;;;;;;27.18;17.96;97458.69;10036801;29;20121;-75
2022/05/31 12:19:39;;;;;;;2.17;0.70;;;;;;;26.92;18.12;97463.00;10056317;29;20049;-77
2022/05/31 12:25:28;;;;;;;1.52;0.38;;;;;;;26.66;18.62;97463.06;10061026;29;20405;-77
2022/05/31 12:31:02;;;;;;;2.17;0.30;;;;;;;26.23;19.11;97451.56;10021909;29;20054;-77
2022/05/31 12:36:24;;;;;;;0.90;0.30;;;;;;;25.73;19.29;97438.59;10016354;29;20060;-79
2022/05/31 12:41:51;;;;;;;1.83;0.30;;;;;;;25.93;19.38;97469.38;9988649;29;20058;-80
2022/05/31 12:47:32;;;;;;;1.38;0.30;;;;;;;26.20;19.29;97435.84;9989243;29;20074;-81
2022/05/31 12:58:35;;;;;;;1.08;0.28;;;;;;;25.92;18.54;97420.06;10039752;29;20481;-80
2022/05/31 13:04:07;;;;;;;2.50;0.30;;;;;;;25.66;19.05;97429.25;10038544;29;20552;-80
2022/05/31 13:09:29;;;;;;;1.40;0.20;;;;;;;25.66;19.62;97414.97;10025739;29;20054;-79
2022/05/31 13:20:34;;;;;;;1.77;0.22;;;;;;;25.96;19.23;97414.38;10029722;29;20053;-80
2022/05/31 13:25:54;;;;;;;1.95;0.30;;;;;;;25.72;19.00;97416.44;10028079;29;20050;-80
2022/05/31 13:31:19;;;;;;;2.85;0.40;;;;;;;25.78;19.13;97405.75;10077061;29;20496;-80
2022/05/31 13:36:45;;;;;;;1.60;0.32;;;;;;;26.38;18.67;97404.41;10054362;29;20061;-80
2022/05/31 13:42:37;;;;;;;1.00;0.28;;;;;;;26.79;18.25;97404.34;10043239;29;20050;-80
2022/05/31 13:48:00;;;;;;;2.20;0.35;;;;;;;26.92;17.86;97399.28;10059249;29;20057;-80
2022/05/31 13:53:22;;;;;;;0.90;0.30;;;;;;;26.45;18.04;97391.53;10049563;29;20141;-80
2022/05/31 13:58:42;;;;;;;1.80;0.30;;;;;;;26.48;17.95;97389.38;10061319;29;20515;-80
2022/05/31 14:04:20;;;;;;;0.77;0.20;;;;;;;26.45;18.15;97387.94;10061249;29;20061;-80
2022/05/31 14:09:41;;;;;;;1.95;0.30;;;;;;;26.23;17.89;97388.63;10075401;29;20067;-79
2022/05/31 14:15:02;;;;;;;0.52;0.22;;;;;;;26.48;18.03;97386.50;10074533;29;20060;-80
2022/05/31 14:20:30;;;;;;;1.00;0.30;;;;;;;26.55;17.86;97379.34;10047216;29;20053;-80
2022/05/31 14:25:52;;;;;;;2.40;0.38;;;;;;;26.53;18.00;97377.19;10039145;29;20064;-74
2022/05/31 14:31:13;;;;;;;2.97;0.30;;;;;;;26.74;17.72;97362.84;10048068;29;20068;-75
2022/05/31 14:36:35;;;;;;;0.93;0.30;;;;;;;26.52;17.72;97372.91;10073812;29;20532;-77
2022/05/31 14:41:56;;;;;;;2.60;0.50;;;;;;;26.26;18.01;97372.91;10060597;29;20129;-80
2022/05/31 14:47:26;;;;;;;1.85;0.20;;;;;;;25.40;18.60;97372.75;10075053;29;20136;-78
2022/05/31 14:52:49;;;;;;;3.75;0.35;;;;;;;24.83;18.67;97378.19;10060510;29;20079;-79
2022/05/31 14:58:40;;;;;;;1.58;0.30;;;;;;;24.69;19.32;97365.97;10060486;29;20109;-76
2022/05/31 15:04:11;;;;;;;1.25;0.40;;;;;;;24.99;18.87;97371.84;10051023;29;20053;-76
2022/05/31 15:09:38;;;;;;;1.52;0.20;;;;;;;24.79;19.36;97369.59;10035654;29;20058;-76
2022/05/31 15:20:41;;;;;;;0.77;0.35;;;;;;;24.62;19.19;97361.69;10061704;29;20063;-75
2022/05/31 15:26:03;;;;;;;;;;;;;;;24.61;19.58;97352.41;10003436;29;20054;-75
2022/05/31 15:31:32;;;;;;;2.13;0.30;;;;;;;24.66;19.36;97348.13;10020790;29;20007;-76
2022/05/31 15:37:16;;;;;;;1.05;0.30;;;;;;;24.83;19.54;97341.09;10043953;29;20057;-80
2022/05/31 15:42:38;;;;;;;2.58;0.25;;;;;;;25.12;19.24;97344.09;10071583;29;20052;-79
2022/05/31 15:47:58;;;;;;;3.10;0.30;;;;;;;25.18;18.98;97326.25;10058470;29;20057;-81
2022/05/31 15:53:25;;;;;;;2.47;0.22;;;;;;;24.92;19.26;97324.72;10060629;29;20064;-82
2022/05/31 15:58:47;;;;;;;1.70;0.40;;;;;;;24.65;19.35;97320.31;10058528;29;20056;-79
2022/05/31 16:04:08;;;;;;;1.85;0.20;;;;;;;24.75;19.08;97315.38;10058049;29;20057;-80
2022/05/31 16:09:30;;;;;;;0.93;0.30;;;;;;;24.65;19.28;97318.19;10058026;29;20132;-77
2022/05/31 16:14:51;;;;;;;1.00;0.33;;;;;;;24.17;19.56;97299.31;10058031;29;20140;-78
2022/05/31 16:20:13;;;;;;;1.48;0.20;;;;;;;24.12;19.57;97302.81;10057905;29;20492;-79
2022/05/31 16:25:35;;;;;;;0.90;0.32;;;;;;;24.14;19.64;97300.72;10057890;29;20057;-81
2022/05/31 16:30:56;;;;;;;2.80;0.50;;;;;;;24.25;19.83;97293.66;10070630;29;20495;-82
2022/05/31 16:36:27;;;;;;;3.00;0.40;;;;;;;24.27;19.74;97284.41;10057708;29;20444;-85
2022/05/31 16:41:49;;;;;;;0.52;0.22;;;;;;;24.39;19.62;97287.34;10057231;29;20061;-82
2022/05/31 16:47:10;;;;;;;2.50;0.38;;;;;;;24.30;19.68;97285.13;10070078;29;20109;-80
2022/05/31 16:52:33;;;;;;;1.83;0.30;;;;;;;24.04;19.84;97280.69;10070058;29;20105;-86
2022/05/31 16:57:54;;;;;;;3.17;0.30;;;;;;;23.90;19.91;97289.84;10070277;29;20080;-82
2022/05/31 17:03:15;;;;;;;1.30;0.30;;;;;;;23.76;20.22;97274.78;10069882;29;20105;-91
2022/05/31 17:14:24;;;;;;;1.38;0.30;;;;;;;23.18;20.43;97262.13;10084971;29;20057;-84
2022/05/31 17:19:45;;;;;;;3.30;0.55;;;;;;;23.14;20.63;97265.63;10059176;29;20064;-78
2022/05/31 17:25:06;;;;;;;3.35;0.50;;;;;;;22.96;20.94;97273.97;10076115;29;20468;-79
2022/05/31 17:30:27;;;;;;;3.00;0.60;;;;;;;22.75;21.20;97272.28;10052830;29;20484;-77
2022/05/31 17:35:59;;;;;;;3.78;0.50;;;;;;;22.59;21.80;97269.25;10066814;29;20083;-77
2022/05/31 17:41:29;;;;;;;2.38;0.50;;;;;;;22.42;22.11;97263.34;10081411;29;20077;-78
2022/05/31 17:46:51;;;;;;;2.17;0.60;;;;;;;22.35;22.47;97269.63;10069341;29;20057;-78
2022/05/31 17:52:12;;;;;;;2.88;0.95;;;;;;;22.11;22.41;97259.34;9999306;29;20058;-75
2022/05/31 17:57:34;;;;;;;7.93;1.05;;;;;;;21.93;22.87;97256.94;10024358;29;20058;-76
2022/05/31 18:02:55;;;;;;;3.43;0.80;;;;;;;21.88;23.18;97261.09;10011336;29;20433;-78
2022/05/31 18:08:16;;;;;;;3.17;0.60;;;;;;;21.81;23.35;97262.44;10011631;29;20424;-76
2022/05/31 18:13:37;;;;;;;2.55;0.57;;;;;;;21.78;23.57;97263.78;10023707;29;20062;-77
2022/05/31 18:18:58;;;;;;;1.58;0.77;;;;;;;21.74;23.62;97269.41;10053096;29;20110;-74
2022/05/31 18:24:22;;;;;;;3.85;0.80;;;;;;;21.69;23.94;97273.56;10080319;29;20064;-76
2022/05/31 18:29:49;;;;;;;2.20;0.80;;;;;;;21.58;24.05;97272.69;10074119;29;20500;-77
2022/05/31 18:35:15;;;;;;;4.57;0.80;;;;;;;21.46;24.44;97291.66;10073550;29;20419;-75
2022/05/31 18:40:36;;;;;;;4.45;0.70;;;;;;;21.30;24.86;97298.47;10087011;29;20057;-76
2022/05/31 18:45:57;;;;;;;1.73;0.80;;;;;;;21.28;25.22;97320.41;10073613;29;20065;-75
2022/05/31 18:51:19;;;;;;;2.13;0.80;;;;;;;21.19;25.93;97322.34;10099053;29;20136;-75
2022/05/31 18:56:41;;;;;;;2.65;0.90;;;;;;;21.10;26.34;97355.53;10073728;29;20064;-74
2022/05/31 19:02:16;;;;;;;1.58;0.82;;;;;;;21.16;27.00;97394.66;10085380;29;20057;-75
2022/05/31 19:07:37;;;;;;;2.33;0.70;;;;;;;21.05;28.69;97427.78;10076381;29;20053;-75
2022/05/31 19:13:06;;;;;;;1.15;0.40;;;;;;;20.58;30.20;97462.91;10085139;29;20057;-75
2022/05/31 19:18:29;;;;;;;4.95;0.60;;;;;;;20.18;31.98;97443.47;10073623;29;20461;-76
2022/05/31 19:23:50;;;;;;;2.00;0.68;;;;;;;19.97;33.89;97433.00;10071998;29;20052;-75
2022/05/31 19:29:11;;;;;;;2.10;0.47;;;;;;;19.69;35.43;97435.84;10071844;29;20064;-75
2022/05/31 19:34:38;;;;;;;3.20;0.60;;;;;;;19.48;36.77;97440.16;10071505;29;20127;-75
2022/05/31 19:40:00;;;;;;;1.98;0.60;;;;;;;19.25;37.91;97441.66;10071679;29;20053;-75
2022/05/31 19:45:21;;;;;;;1.27;0.60;;;;;;;19.07;39.36;97450.34;10058198;29;20064;-75
2022/05/31 19:50:41;;;;;;;1.35;0.65;;;;;;;18.93;40.37;97464.06;10097899;29;20120;-75
2022/05/31 19:56:02;;;;;;;1.75;0.80;;;;;;;18.83;41.46;97469.41;10096151;29;20061;-76
2022/05/31 20:01:23;;;;;;;3.35;0.70;;;;;;;18.73;41.99;97469.81;10050618;29;20053;-76
2022/05/31 20:06:44;;;;;;;2.33;0.50;;;;;;;18.67;42.71;97468.91;10054136;29;20053;-77
2022/05/31 20:12:05;;;;;;;4.35;0.70;;;;;;;18.57;43.59;97441.72;10083530;29;20061;-78
2022/05/31 20:17:26;;;;;;;1.35;0.60;;;;;;;18.49;44.14;97454.88;10083365;29;20057;-77
2022/05/31 20:22:47;;;;;;;1.50;0.90;;;;;;;18.46;44.19;97470.34;10082617;29;20408;-77
2022/05/31 20:28:14;;;;;;;3.10;1.00;;;;;;;18.48;44.54;97481.69;10070303;29;20061;-77
2022/05/31 20:33:35;;;;;;;2.35;1.05;;;;;;;18.48;44.90;97493.72;10071508;29;20057;-78
2022/05/31 20:38:56;;;;;;;2.47;0.80;;;;;;;18.29;46.25;97500.16;10083030;29;20079;-78
2022/05/31 20:44:18;;;;;;;1.60;0.90;;;;;;;18.04;46.62;97487.28;10083045;29;20126;-77
2022/05/31 20:49:38;;;;;;;2.28;0.82;;;;;;;17.91;47.91;97500.28;10082838;29;20057;-77
2022/05/31 20:54:59;;;;;;;1.98;0.50;;;;;;;17.76;48.66;97498.34;10070948;29;20052;-77
2022/05/31 21:00:21;;;;;;;1.90;0.63;;;;;;;17.64;48.60;97503.50;10077339;29;20053;-78
2022/05/31 21:05:42;;;;;;;2.08;0.90;;;;;;;17.47;50.21;97502.22;10089744;29;20065;-78
2022/05/31 21:11:03;;;;;;;1.05;0.57;;;;;;;17.45;50.32;97485.91;10070608;29;20063;-79
2022/05/31 21:16:24;;;;;;;3.22;0.65;;;;;;;17.39;50.74;97474.44;10077171;29;20073;-78
2022/05/31 21:21:45;;;;;;;2.78;0.63;;;;;;;17.34;51.30;97455.91;10078279;29;20450;-79
2022/05/31 21:27:06;;;;;;;1.98;0.77;;;;;;;17.23;51.42;97439.97;10063141;29;20053;-78
2022/05/31 21:32:27;;;;;;;2.33;0.60;;;;;;;17.33;51.43;97445.25;10077499;29;20117;-78
2022/05/31 21:37:48;;;;;;;1.33;0.60;;;;;;;17.38;51.66;97447.59;10050969;29;20064;-79
2022/05/31 21:43:09;;;;;;;2.05;0.55;;;;;;;17.37;51.54;97432.03;10071994;29;20412;-78
2022/05/31 21:48:30;;;;;;;1.13;0.40;;;;;;;17.31;51.56;97423.34;10062931;29;20061;-77
2022/05/31 21:53:50;;;;;;;1.65;0.52;;;;;;;17.27;51.63;97451.41;10049898;29;20054;-77
2022/05/31 21:59:23;;;;;;;2.90;0.50;;;;;;;17.17;51.90;97451.03;10062732;29;20421;-77
2022/05/31 22:04:44;;;;;;;1.88;0.52;;;;;;;17.09;52.30;97459.19;10049893;29;20068;-77
2022/05/31 22:10:06;;;;;;;2.17;0.60;;;;;;;16.98;52.19;97474.25;10048772;29;20415;-77
2022/05/31 22:15:27;;;;;;;2.85;0.70;;;;;;;16.83;53.21;97482.19;10036341;29;20053;-77
2022/05/31 22:21:16;;;;;;;4.22;0.70;;;;;;;16.77;52.89;97487.59;10053262;29;20144;-77
2022/05/31 22:26:36;;;;;;;1.60;0.70;;;;;;;16.74;54.01;97505.78;10036169;29;20059;-78
2022/05/31 22:31:57;;;;;;;1.92;1.05;;;;;;;16.78;54.37;97522.13;10048435;29;20091;-77
2022/05/31 22:37:21;;;;;;;1.85;0.70;;;;;;;16.58;54.24;97530.47;10061846;29;20060;-77
2022/05/31 22:42:53;;;;;;;3.65;1.00;;;;;;;16.39;56.08;97534.63;10062683;29;20137;-77
2022/05/31 22:48:13;;;;;;;1.85;1.00;;;;;;;16.29;55.87;97532.13;10025844;29;20512;-77
2022/05/31 22:54:02;;;;;;;2.20;1.10;;;;;;;16.14;56.37;97513.19;10065671;29;20117;-78
2022/05/31 22:59:32;;;;;;;2.15;0.80;;;;;;;16.04;57.25;97509.94;10041049;29;20053;-78
2022/05/31 23:04:57;;;;;;;2.20;0.80;;;;;;;15.97;57.18;97508.22;10051985;29;20129;-77
2022/05/31 23:10:21;;;;;;;1.70;0.88;;;;;;;15.86;57.49;97495.09;10052447;29;20046;-77
2022/05/31 23:17:26;;;;;;;3.15;0.77;;;;;;;15.83;58.42;97507.63;10056300;29;20526;-77
2022/05/31 23:29:06;;;;;;;1.40;0.73;;;;;;;15.68;58.34;97509.81;10067906;29;20066;-77
2022/05/31 23:34:33;;;;;;;2.50;0.70;;;;;;;15.62;58.79;97506.72;10055045;29;20113;-77
2022/05/31 23:41:06;;;;;;;1.80;0.85;;;;;;;15.56;59.57;97500.09;10055090;29;20064;-78
2022/05/31 23:46:59;;;;;;;2.55;1.30;;;;;;;15.51;59.94;97510.44;10068794;29;20062;-77
2022/05/31 23:52:58;;;;;;;3.17;1.10;;;;;;;15.42;59.73;97503.00;10067531;29;20062;-77
2022/05/31 23:58:29;;;;;;;2.05;1.10;;;;;;;15.36;59.63;97497.84;10067279;29;20076;-77
